createdAt,value
2019-04-30T00:00:34.834Z,8.00
2019-04-30T00:01:32.210Z,8.00
2019-04-30T00:02:37.853Z,8.00
2019-04-30T00:03:32.217Z,8.00
2019-04-30T00:04:37.246Z,8.00
2019-04-30T00:05:32.190Z,8.00
2019-04-30T00:06:34.689Z,8.00
2019-04-30T00:07:32.172Z,8.00
2019-04-30T00:08:35.475Z,8.00
2019-04-30T00:09:32.131Z,8.00
2019-04-30T00:10:36.858Z,8.00
2019-04-30T00:11:32.139Z,8.00
2019-04-30T00:12:35.923Z,8.00
2019-04-30T00:13:32.119Z,8.00
2019-04-30T00:14:36.969Z,8.00
2019-04-30T00:15:32.107Z,8.00
2019-04-30T00:16:36.241Z,8.00
2019-04-30T00:17:32.334Z,8.00
2019-04-30T00:18:37.935Z,8.00
2019-04-30T00:19:32.056Z,8.00
2019-04-30T00:20:37.216Z,8.00
2019-04-30T00:21:32.044Z,8.00
2019-04-30T00:22:34.332Z,8.00
2019-04-30T00:23:32.033Z,8.00
2019-04-30T00:24:32.037Z,8.00
2019-04-30T00:25:32.019Z,8.00
2019-04-30T00:26:32.016Z,8.00
2019-04-30T00:27:32.010Z,8.00
2019-04-30T00:28:31.983Z,8.00
2019-04-30T00:29:31.983Z,8.00
2019-04-30T00:30:31.971Z,8.00
2019-04-30T00:31:31.983Z,8.00
2019-04-30T00:32:32.007Z,8.00
2019-04-30T00:33:31.991Z,8.00
2019-04-30T00:34:35.943Z,8.00
2019-04-30T00:35:31.936Z,8.00
2019-04-30T00:36:34.181Z,8.00
2019-04-30T00:37:31.923Z,8.00
2019-04-30T00:38:34.341Z,8.00
2019-04-30T00:39:31.903Z,8.00
2019-04-30T00:40:31.930Z,8.00
2019-04-30T00:41:31.869Z,8.00
2019-04-30T00:42:31.883Z,8.00
2019-04-30T00:43:31.876Z,8.00
2019-04-30T00:44:31.842Z,8.00
2019-04-30T00:45:31.857Z,8.00
2019-04-30T00:46:31.846Z,8.00
2019-04-30T00:47:31.854Z,8.00
2019-04-30T00:48:31.808Z,8.00
2019-04-30T00:49:31.803Z,8.00
2019-04-30T00:50:35.915Z,8.00
2019-04-30T00:51:31.816Z,8.00
2019-04-30T00:52:33.925Z,8.00
2019-04-30T00:53:31.823Z,8.00
2019-04-30T00:54:31.771Z,8.00
2019-04-30T00:55:31.813Z,8.00
2019-04-30T00:56:31.772Z,8.00
2019-04-30T00:57:31.732Z,8.00
2019-04-30T00:58:31.746Z,8.00
2019-04-30T00:59:31.721Z,8.00
2019-04-30T01:00:31.718Z,8.00
2019-04-30T01:01:31.717Z,8.00
2019-04-30T01:02:32.262Z,8.00
2019-04-30T01:03:31.702Z,8.00
2019-04-30T01:04:31.674Z,8.00
2019-04-30T01:05:31.699Z,8.00
2019-04-30T01:06:31.657Z,8.00
2019-04-30T01:07:31.680Z,8.00
2019-04-30T01:08:31.652Z,8.00
2019-04-30T01:09:31.680Z,8.00
2019-04-30T01:10:31.639Z,8.00
2019-04-30T01:11:31.641Z,8.00
2019-04-30T01:12:36.385Z,8.00
2019-04-30T01:13:31.611Z,8.00
2019-04-30T01:14:32.140Z,8.00
2019-04-30T01:15:31.602Z,8.00
2019-04-30T01:16:33.111Z,8.00
2019-04-30T01:17:31.573Z,8.00
2019-04-30T01:18:32.169Z,8.00
2019-04-30T01:19:32.925Z,8.00
2019-04-30T01:20:32.840Z,8.00
2019-04-30T01:21:31.565Z,8.00
2019-04-30T01:22:32.890Z,8.00
2019-04-30T01:23:31.545Z,8.00
2019-04-30T01:24:31.571Z,8.00
2019-04-30T01:25:31.515Z,8.00
2019-04-30T01:26:31.505Z,8.00
2019-04-30T01:27:31.469Z,8.00
2019-04-30T01:28:31.478Z,8.00
2019-04-30T01:29:38.050Z,8.00
2019-04-30T01:30:31.471Z,8.00
2019-04-30T01:31:37.236Z,8.00
2019-04-30T01:32:31.455Z,8.00
2019-04-30T01:33:34.613Z,8.00
2019-04-30T01:34:31.439Z,8.00
2019-04-30T01:35:32.751Z,8.00
2019-04-30T01:36:31.412Z,8.00
2019-04-30T01:37:32.866Z,8.00
2019-04-30T01:38:31.393Z,8.00
2019-04-30T01:39:31.726Z,8.00
2019-04-30T01:40:31.362Z,8.00
2019-04-30T01:41:31.538Z,8.00
2019-04-30T01:42:31.362Z,8.00
2019-04-30T01:43:34.390Z,8.00
2019-04-30T01:44:31.344Z,8.00
2019-04-30T01:45:31.732Z,8.00
2019-04-30T01:46:31.317Z,8.00
2019-04-30T01:47:31.476Z,8.00
2019-04-30T01:48:31.322Z,8.00
2019-04-30T01:49:41.678Z,8.00
2019-04-30T01:50:33.831Z,8.00
2019-04-30T01:51:31.294Z,8.00
2019-04-30T01:52:35.133Z,8.00
2019-04-30T01:53:31.265Z,8.00
2019-04-30T01:54:31.252Z,8.00
2019-04-30T01:55:31.282Z,8.00
2019-04-30T01:56:31.251Z,8.00
2019-04-30T01:57:31.228Z,8.00
2019-04-30T01:58:33.299Z,8.00
2019-04-30T01:59:31.212Z,8.00
2019-04-30T02:00:31.186Z,8.00
2019-04-30T02:01:31.301Z,8.00
2019-04-30T02:02:31.178Z,8.00
2019-04-30T02:03:31.186Z,8.00
2019-04-30T02:04:31.499Z,8.00
2019-04-30T02:05:31.156Z,8.00
2019-04-30T02:06:31.194Z,8.00
2019-04-30T02:07:31.143Z,8.00
2019-04-30T02:08:31.139Z,8.00
2019-04-30T02:09:31.125Z,8.00
2019-04-30T02:10:31.097Z,8.00
2019-04-30T02:11:31.126Z,8.00
2019-04-30T02:12:31.111Z,8.00
2019-04-30T02:13:34.290Z,8.00
2019-04-30T02:14:31.082Z,8.00
2019-04-30T02:15:31.064Z,8.00
2019-04-30T02:16:31.114Z,8.00
2019-04-30T02:17:31.101Z,8.00
2019-04-30T02:18:31.061Z,8.00
2019-04-30T02:19:31.222Z,8.00
2019-04-30T02:20:31.022Z,8.00
2019-04-30T02:21:33.248Z,8.00
2019-04-30T02:22:31.196Z,8.00
2019-04-30T02:23:31.006Z,8.00
2019-04-30T02:24:31.009Z,8.00
2019-04-30T02:25:30.992Z,8.00
2019-04-30T02:26:30.976Z,8.00
2019-04-30T02:27:30.962Z,8.00
2019-04-30T02:28:30.949Z,8.00
2019-04-30T02:29:30.960Z,8.00
2019-04-30T02:30:31.242Z,8.00
2019-04-30T02:31:31.078Z,8.00
2019-04-30T02:32:30.941Z,8.00
2019-04-30T02:33:30.958Z,8.00
2019-04-30T02:34:30.910Z,8.00
2019-04-30T02:35:30.900Z,8.00
2019-04-30T02:36:30.897Z,8.00
2019-04-30T02:37:30.894Z,8.00
2019-04-30T02:38:30.904Z,8.00
2019-04-30T02:39:30.864Z,8.00
2019-04-30T02:40:30.857Z,8.00
2019-04-30T02:41:30.862Z,8.00
2019-04-30T02:42:30.847Z,8.00
2019-04-30T02:43:30.827Z,8.00
2019-04-30T02:44:30.833Z,8.00
2019-04-30T02:45:30.787Z,8.00
2019-04-30T02:46:32.289Z,8.00
2019-04-30T02:47:30.796Z,8.00
2019-04-30T02:48:30.815Z,8.00
2019-04-30T02:49:30.784Z,8.00
2019-04-30T02:50:30.768Z,8.00
2019-04-30T02:51:30.760Z,8.00
2019-04-30T02:52:30.759Z,8.00
2019-04-30T02:53:30.751Z,8.00
2019-04-30T02:54:30.741Z,8.00
2019-04-30T02:55:30.739Z,8.00
2019-04-30T02:56:30.708Z,8.00
2019-04-30T02:57:30.696Z,8.00
2019-04-30T02:58:30.705Z,8.00
2019-04-30T02:59:30.683Z,8.00
2019-04-30T03:00:32.812Z,8.00
2019-04-30T03:01:30.725Z,8.00
2019-04-30T03:02:30.708Z,8.00
2019-04-30T03:03:30.649Z,8.00
2019-04-30T03:04:30.643Z,8.00
2019-04-30T03:05:31.162Z,8.00
2019-04-30T03:06:30.731Z,8.00
2019-04-30T03:07:30.607Z,8.00
2019-04-30T03:08:30.621Z,8.00
2019-04-30T03:09:30.602Z,8.00
2019-04-30T03:10:30.599Z,8.00
2019-04-30T03:11:30.589Z,8.00
2019-04-30T03:12:33.614Z,8.00
2019-04-30T03:13:30.612Z,8.00
2019-04-30T03:14:30.551Z,8.00
2019-04-30T03:15:30.554Z,8.00
2019-04-30T03:16:30.549Z,8.00
2019-04-30T03:17:30.528Z,8.00
2019-04-30T03:18:30.576Z,8.00
2019-04-30T03:19:30.504Z,8.00
2019-04-30T03:20:35.763Z,8.00
2019-04-30T03:21:32.024Z,8.00
2019-04-30T03:22:30.499Z,8.00
2019-04-30T03:23:30.477Z,8.00
2019-04-30T03:24:30.458Z,8.00
2019-04-30T03:25:30.469Z,8.00
2019-04-30T03:26:30.455Z,8.00
2019-04-30T03:27:30.457Z,8.00
2019-04-30T03:28:30.415Z,8.00
2019-04-30T03:29:30.581Z,8.00
2019-04-30T03:30:32.060Z,8.00
2019-04-30T03:31:32.364Z,8.00
2019-04-30T03:32:35.682Z,8.00
2019-04-30T03:33:32.701Z,8.00
2019-04-30T03:34:32.447Z,8.00
2019-04-30T03:35:32.286Z,8.00
2019-04-30T03:36:32.601Z,8.00
2019-04-30T03:37:30.346Z,8.00
2019-04-30T03:38:30.359Z,8.00
2019-04-30T03:39:33.616Z,8.00
2019-04-30T03:40:30.366Z,8.00
2019-04-30T03:41:33.371Z,8.00
2019-04-30T03:42:30.327Z,8.00
2019-04-30T03:43:30.344Z,8.00
2019-04-30T03:44:32.417Z,8.00
2019-04-30T03:45:30.371Z,8.00
2019-04-30T03:46:30.321Z,8.00
2019-04-30T03:47:30.327Z,8.00
2019-04-30T03:48:30.299Z,8.00
2019-04-30T03:49:30.248Z,8.00
2019-04-30T03:50:48.296Z,8.00
2019-04-30T03:51:30.422Z,8.00
2019-04-30T03:52:30.427Z,8.00
2019-04-30T03:53:30.221Z,8.00
2019-04-30T03:54:30.221Z,8.00
2019-04-30T03:55:30.207Z,8.00
2019-04-30T03:56:30.206Z,8.00
2019-04-30T03:57:30.387Z,8.00
2019-04-30T03:58:30.174Z,8.00
2019-04-30T03:59:30.415Z,8.00
2019-04-30T04:00:30.169Z,8.00
2019-04-30T04:01:30.200Z,8.00
2019-04-30T04:02:30.274Z,8.00
2019-04-30T04:03:30.233Z,8.00
2019-04-30T04:04:30.956Z,8.00
2019-04-30T04:05:30.114Z,8.00
2019-04-30T04:06:30.101Z,8.00
2019-04-30T04:07:30.245Z,8.00
2019-04-30T04:08:30.100Z,8.00
2019-04-30T04:09:30.176Z,8.00
2019-04-30T04:10:30.081Z,8.00
2019-04-30T04:11:30.060Z,8.00
2019-04-30T04:12:30.629Z,8.00
2019-04-30T04:13:32.998Z,8.00
2019-04-30T04:14:30.083Z,8.00
2019-04-30T04:15:30.147Z,8.00
2019-04-30T04:16:32.288Z,8.00
2019-04-30T04:17:31.455Z,8.00
2019-04-30T04:18:30.250Z,8.00
2019-04-30T04:19:30.009Z,8.00
2019-04-30T04:20:30.051Z,8.00
2019-04-30T04:21:30.153Z,8.00
2019-04-30T04:22:30.661Z,8.00
2019-04-30T04:23:32.879Z,8.00
2019-04-30T04:24:30.217Z,8.00
2019-04-30T04:25:30.123Z,8.00
2019-04-30T04:26:30.053Z,8.00
2019-04-30T04:27:30.369Z,8.00
2019-04-30T04:28:30.130Z,8.00
2019-04-30T04:29:30.011Z,8.00
2019-04-30T04:30:30.062Z,8.00
2019-04-30T04:31:29.999Z,8.00
2019-04-30T04:32:30.719Z,8.00
2019-04-30T04:33:29.889Z,8.00
2019-04-30T04:34:30.279Z,8.00
2019-04-30T04:35:30.174Z,8.00
2019-04-30T04:36:30.385Z,8.00
2019-04-30T04:37:30.341Z,8.00
2019-04-30T04:38:30.370Z,8.00
2019-04-30T04:39:29.887Z,8.00
2019-04-30T04:40:30.283Z,8.00
2019-04-30T04:41:29.862Z,8.00
2019-04-30T04:42:32.864Z,8.00
2019-04-30T04:43:30.071Z,8.00
2019-04-30T04:44:29.829Z,8.00
2019-04-30T04:45:30.628Z,8.00
2019-04-30T04:46:30.691Z,8.00
2019-04-30T04:47:30.857Z,8.00
2019-04-30T04:48:29.982Z,8.00
2019-04-30T04:49:30.549Z,8.00
2019-04-30T04:50:30.225Z,8.00
2019-04-30T04:51:38.196Z,8.00
2019-04-30T04:52:31.435Z,8.00
2019-04-30T04:53:30.481Z,8.00
2019-04-30T04:54:29.976Z,8.00
2019-04-30T04:55:30.067Z,8.00
2019-04-30T04:56:30.420Z,8.00
2019-04-30T04:57:30.488Z,8.00
2019-04-30T04:58:30.285Z,8.00
2019-04-30T04:59:29.787Z,8.00
2019-04-30T05:00:29.636Z,8.00
2019-04-30T05:01:29.644Z,8.00
2019-04-30T05:02:32.592Z,8.00
2019-04-30T05:03:29.822Z,8.00
2019-04-30T05:04:29.919Z,8.00
2019-04-30T05:05:29.846Z,8.00
2019-04-30T05:06:29.848Z,8.00
2019-04-30T05:07:29.590Z,8.00
2019-04-30T05:08:29.588Z,8.00
2019-04-30T05:09:29.580Z,8.00
2019-04-30T05:10:29.579Z,8.00
2019-04-30T05:11:31.596Z,8.00
2019-04-30T05:12:29.854Z,8.00
2019-04-30T05:13:29.573Z,8.00
2019-04-30T05:14:29.508Z,8.00
2019-04-30T05:15:29.625Z,8.00
2019-04-30T05:16:29.503Z,8.00
2019-04-30T05:17:31.865Z,8.00
2019-04-30T05:18:29.509Z,8.00
2019-04-30T05:19:29.486Z,8.00
2019-04-30T05:20:29.456Z,8.00
2019-04-30T05:21:41.434Z,8.00
2019-04-30T05:22:29.526Z,8.00
2019-04-30T05:23:29.798Z,8.00
2019-04-30T05:24:29.494Z,8.00
2019-04-30T05:25:29.675Z,8.00
2019-04-30T05:26:29.423Z,8.00
2019-04-30T05:27:30.297Z,8.00
2019-04-30T05:28:30.129Z,8.00
2019-04-30T05:29:29.377Z,8.00
2019-04-30T05:30:29.609Z,8.00
2019-04-30T05:31:29.361Z,8.00
2019-04-30T05:32:29.399Z,8.00
2019-04-30T05:33:29.378Z,8.00
2019-04-30T05:34:29.348Z,8.00
2019-04-30T05:35:31.099Z,8.00
2019-04-30T05:36:29.369Z,8.00
2019-04-30T05:37:29.338Z,8.00
2019-04-30T05:38:31.317Z,8.00
2019-04-30T05:39:29.313Z,8.00
2019-04-30T05:40:29.306Z,8.00
2019-04-30T05:41:29.299Z,8.00
2019-04-30T05:42:29.299Z,8.00
2019-04-30T05:43:29.268Z,8.00
2019-04-30T05:44:29.833Z,8.00
2019-04-30T05:45:29.255Z,8.00
2019-04-30T05:46:29.850Z,8.00
2019-04-30T05:47:29.275Z,8.00
2019-04-30T05:48:29.230Z,8.00
2019-04-30T05:49:29.235Z,8.00
2019-04-30T05:50:29.644Z,8.00
2019-04-30T05:51:29.198Z,8.00
2019-04-30T05:52:29.476Z,8.00
2019-04-30T05:53:29.181Z,8.00
2019-04-30T05:54:29.290Z,8.00
2019-04-30T05:55:29.486Z,8.00
2019-04-30T05:56:30.438Z,8.00
2019-04-30T05:57:29.489Z,8.00
2019-04-30T05:58:29.990Z,8.00
2019-04-30T05:59:29.139Z,8.00
2019-04-30T06:00:30.587Z,8.00
2019-04-30T06:01:29.627Z,8.00
2019-04-30T06:02:33.657Z,8.00
2019-04-30T06:03:32.965Z,8.00
2019-04-30T06:04:29.414Z,8.00
2019-04-30T06:05:29.087Z,8.00
2019-04-30T06:06:29.154Z,8.00
2019-04-30T06:07:29.915Z,8.00
2019-04-30T06:08:29.301Z,8.00
2019-04-30T06:09:33.658Z,8.00
2019-04-30T06:10:29.413Z,8.00
2019-04-30T06:11:29.294Z,8.00
2019-04-30T06:12:29.020Z,8.00
2019-04-30T06:13:29.018Z,8.00
2019-04-30T06:14:29.035Z,8.00
2019-04-30T06:15:29.153Z,8.00
2019-04-30T06:16:29.859Z,8.00
2019-04-30T06:17:29.401Z,8.00
2019-04-30T06:18:28.970Z,8.00
2019-04-30T06:19:29.307Z,8.00
2019-04-30T06:20:28.974Z,8.00
2019-04-30T06:21:29.535Z,8.00
2019-04-30T06:22:28.967Z,8.00
2019-04-30T06:23:29.417Z,8.00
2019-04-30T06:24:30.262Z,8.00
2019-04-30T06:25:40.865Z,8.00
2019-04-30T06:26:29.526Z,8.00
2019-04-30T06:27:29.209Z,8.00
2019-04-30T06:28:29.264Z,8.00
2019-04-30T06:29:29.041Z,8.00
2019-04-30T06:30:29.705Z,8.00
2019-04-30T06:31:34.835Z,8.00
2019-04-30T06:32:29.559Z,8.00
2019-04-30T06:33:29.112Z,8.00
2019-04-30T06:34:29.448Z,8.00
2019-04-30T06:35:29.449Z,8.00
2019-04-30T06:36:28.815Z,8.00
2019-04-30T06:37:31.385Z,8.00
2019-04-30T06:38:29.161Z,8.00
2019-04-30T06:39:28.906Z,8.00
2019-04-30T06:40:29.351Z,8.00
2019-04-30T06:41:29.596Z,8.00
2019-04-30T06:42:29.344Z,8.00
2019-04-30T06:43:28.863Z,8.00
2019-04-30T06:44:36.958Z,8.00
2019-04-30T06:45:29.059Z,8.00
2019-04-30T06:46:28.740Z,8.00
2019-04-30T06:47:33.065Z,8.00
2019-04-30T06:48:29.548Z,8.00
2019-04-30T06:49:28.904Z,8.00
2019-04-30T06:50:29.306Z,8.00
2019-04-30T06:51:30.621Z,8.00
2019-04-30T06:52:29.341Z,8.00
2019-04-30T06:53:29.248Z,8.00
2019-04-30T06:54:28.799Z,8.00
2019-04-30T06:55:30.663Z,8.00
2019-04-30T06:56:28.907Z,8.00
2019-04-30T06:57:29.518Z,8.00
2019-04-30T06:58:29.117Z,8.00
2019-04-30T06:59:29.948Z,8.00
2019-04-30T07:00:35.079Z,8.00
2019-04-30T07:01:29.078Z,8.00
2019-04-30T07:02:30.632Z,8.00
2019-04-30T07:03:29.076Z,8.00
2019-04-30T07:04:29.285Z,8.00
2019-04-30T07:05:28.696Z,8.00
2019-04-30T07:06:31.924Z,8.00
2019-04-30T07:07:38.399Z,8.00
2019-04-30T07:08:38.946Z,8.00
2019-04-30T07:09:33.547Z,8.00
2019-04-30T07:10:29.438Z,8.00
2019-04-30T07:11:29.326Z,8.00
2019-04-30T07:12:30.505Z,8.00
2019-04-30T07:13:29.699Z,8.00
2019-04-30T07:14:29.252Z,8.00
2019-04-30T07:15:29.629Z,8.00
2019-04-30T07:16:29.829Z,8.00
2019-04-30T07:17:29.199Z,8.00
2019-04-30T07:18:28.872Z,8.00
2019-04-30T07:19:32.891Z,8.00
2019-04-30T07:20:29.155Z,8.00
2019-04-30T07:21:31.272Z,8.00
2019-04-30T07:22:37.586Z,8.00
2019-04-30T07:23:28.590Z,8.00
2019-04-30T07:24:29.619Z,8.00
2019-04-30T07:25:29.311Z,8.00
2019-04-30T07:26:28.912Z,8.00
2019-04-30T07:27:30.210Z,8.00
2019-04-30T07:28:43.658Z,8.00
2019-04-30T07:29:29.571Z,8.00
2019-04-30T07:30:30.690Z,8.00
2019-04-30T07:31:29.556Z,8.00
2019-04-30T07:32:28.776Z,8.00
2019-04-30T07:33:29.564Z,8.00
2019-04-30T07:34:30.293Z,8.00
2019-04-30T07:35:29.258Z,8.00
2019-04-30T07:36:43.491Z,8.00
2019-04-30T07:37:29.268Z,8.00
2019-04-30T07:38:29.474Z,8.00
2019-04-30T07:39:29.317Z,8.00
2019-04-30T07:40:29.233Z,8.00
2019-04-30T07:41:30.827Z,8.00
2019-04-30T07:42:29.428Z,8.00
2019-04-30T07:43:28.938Z,8.00
2019-04-30T07:44:34.100Z,8.00
2019-04-30T07:45:31.588Z,8.00
2019-04-30T07:46:29.920Z,8.00
2019-04-30T07:47:29.608Z,8.00
2019-04-30T07:48:29.811Z,8.00
2019-04-30T07:49:46.196Z,8.00
2019-04-30T07:50:30.736Z,8.00
2019-04-30T07:51:31.967Z,8.00
2019-04-30T07:52:33.330Z,8.00
2019-04-30T07:53:28.207Z,8.00
2019-04-30T07:54:29.970Z,8.00
2019-04-30T07:55:29.548Z,8.00
2019-04-30T07:56:32.150Z,8.00
2019-04-30T07:57:29.153Z,8.00
2019-04-30T07:58:29.869Z,8.00
2019-04-30T07:59:30.057Z,8.00
2019-04-30T08:00:31.016Z,8.00
2019-04-30T08:01:29.475Z,8.00
2019-04-30T08:02:29.708Z,8.00
2019-04-30T08:03:30.224Z,8.00
2019-04-30T08:04:29.343Z,8.00
2019-04-30T08:05:29.715Z,8.00
2019-04-30T08:06:30.638Z,8.00
2019-04-30T08:07:29.775Z,8.00
2019-04-30T08:08:30.168Z,8.00
2019-04-30T08:09:38.622Z,8.00
2019-04-30T08:10:29.608Z,8.00
2019-04-30T08:11:29.311Z,8.00
2019-04-30T08:12:31.889Z,8.00
2019-04-30T08:13:31.965Z,8.00
2019-04-30T08:14:28.806Z,8.00
2019-04-30T08:15:29.578Z,8.00
2019-04-30T08:16:28.768Z,8.00
2019-04-30T08:17:28.952Z,8.00
2019-04-30T08:18:29.461Z,8.00
2019-04-30T08:19:28.712Z,8.00
2019-04-30T08:20:29.451Z,8.00
2019-04-30T08:21:28.797Z,8.00
2019-04-30T08:22:29.671Z,8.00
2019-04-30T08:23:35.009Z,8.00
2019-04-30T08:24:29.177Z,8.00
2019-04-30T08:25:29.116Z,8.00
2019-04-30T08:26:28.694Z,8.00
2019-04-30T08:27:29.549Z,8.00
2019-04-30T08:28:30.166Z,8.00
2019-04-30T08:29:29.362Z,8.00
2019-04-30T08:30:29.899Z,8.00
2019-04-30T08:31:29.272Z,8.00
2019-04-30T08:32:28.942Z,8.00
2019-04-30T08:33:29.247Z,8.00
2019-04-30T08:34:29.248Z,8.00
2019-04-30T08:35:29.514Z,8.00
2019-04-30T08:36:29.619Z,8.00
2019-04-30T08:37:28.855Z,8.00
2019-04-30T08:38:29.930Z,8.00
2019-04-30T08:39:29.520Z,8.00
2019-04-30T08:40:29.617Z,8.00
2019-04-30T08:41:29.241Z,8.00
2019-04-30T08:42:31.769Z,8.00
2019-04-30T08:43:29.218Z,8.00
2019-04-30T08:44:29.495Z,8.00
2019-04-30T08:45:31.105Z,8.00
2019-04-30T08:46:28.731Z,8.00
2019-04-30T08:47:29.120Z,8.00
2019-04-30T08:48:43.625Z,8.00
2019-04-30T08:49:29.797Z,8.00
2019-04-30T08:50:29.284Z,8.00
2019-04-30T08:51:30.531Z,8.00
2019-04-30T08:52:27.640Z,8.00
2019-04-30T08:53:32.529Z,8.00
2019-04-30T08:54:29.389Z,8.00
2019-04-30T08:55:27.658Z,8.00
2019-04-30T08:56:29.592Z,8.00
2019-04-30T08:57:29.341Z,8.00
2019-04-30T08:58:29.241Z,8.00
2019-04-30T08:59:29.400Z,8.00
2019-04-30T09:00:29.589Z,8.00
2019-04-30T09:01:29.232Z,8.00
2019-04-30T09:02:28.999Z,8.00
2019-04-30T09:03:29.506Z,8.00
2019-04-30T09:04:29.018Z,8.00
2019-04-30T09:05:28.700Z,8.00
2019-04-30T09:06:29.060Z,8.00
2019-04-30T09:07:29.628Z,8.00
2019-04-30T09:08:29.302Z,8.00
2019-04-30T09:09:29.433Z,8.00
2019-04-30T09:10:29.278Z,8.00
2019-04-30T09:11:33.851Z,8.00
2019-04-30T09:12:27.456Z,8.00
2019-04-30T09:13:28.673Z,8.00
2019-04-30T09:14:29.430Z,12.00
2019-04-30T09:15:29.062Z,8.00
2019-04-30T09:16:29.348Z,12.00
2019-04-30T09:17:29.509Z,8.00
2019-04-30T09:18:29.030Z,12.00
2019-04-30T09:19:27.400Z,12.00
2019-04-30T09:20:29.043Z,12.00
2019-04-30T09:21:27.369Z,16.00
2019-04-30T09:22:29.230Z,16.00
2019-04-30T09:23:40.555Z,16.00
2019-04-30T09:24:30.670Z,16.00
2019-04-30T09:25:28.713Z,12.00
2019-04-30T09:26:28.913Z,12.00
2019-04-30T09:27:29.424Z,16.00
2019-04-30T09:28:29.337Z,16.00
2019-04-30T09:29:29.090Z,20.00
2019-04-30T09:30:27.300Z,24.00
2019-04-30T09:31:29.385Z,28.00
2019-04-30T09:32:28.986Z,28.00
2019-04-30T09:33:29.289Z,28.00
2019-04-30T09:34:28.998Z,32.00
2019-04-30T09:35:29.521Z,36.00
2019-04-30T09:36:29.073Z,36.00
2019-04-30T09:37:27.221Z,40.00
2019-04-30T09:38:28.903Z,44.00
2019-04-30T09:39:29.328Z,48.00
2019-04-30T09:40:30.251Z,48.00
2019-04-30T09:41:28.662Z,52.00
2019-04-30T09:42:29.468Z,56.00
2019-04-30T09:43:28.620Z,56.00
2019-04-30T09:44:30.540Z,60.00
2019-04-30T09:45:28.583Z,64.00
2019-04-30T09:46:29.211Z,64.00
2019-04-30T09:47:27.155Z,68.00
2019-04-30T09:48:30.359Z,72.00
2019-04-30T09:49:27.114Z,76.00
2019-04-30T09:50:28.676Z,80.00
2019-04-30T09:51:27.918Z,80.00
2019-04-30T09:52:30.226Z,84.00
2019-04-30T09:53:27.075Z,84.00
2019-04-30T09:54:28.944Z,88.00
2019-04-30T09:55:28.930Z,92.00
2019-04-30T09:56:27.036Z,92.00
2019-04-30T09:57:28.886Z,100.00
2019-04-30T09:58:27.083Z,104.00
2019-04-30T09:59:28.970Z,100.00
2019-04-30T10:00:27.024Z,104.00
2019-04-30T10:01:27.011Z,108.00
2019-04-30T10:02:28.948Z,112.00
2019-04-30T10:03:27.245Z,112.00
2019-04-30T10:04:27.836Z,116.00
2019-04-30T10:05:29.065Z,120.00
2019-04-30T10:06:39.365Z,124.00
2019-04-30T10:07:26.957Z,124.00
2019-04-30T10:08:27.152Z,128.00
2019-04-30T10:09:26.925Z,132.00
2019-04-30T10:10:28.806Z,132.00
2019-04-30T10:11:26.929Z,132.00
2019-04-30T10:12:26.924Z,132.00
2019-04-30T10:13:26.923Z,136.00
2019-04-30T10:14:26.914Z,140.00
2019-04-30T10:15:28.824Z,144.00
2019-04-30T10:16:26.870Z,144.00
2019-04-30T10:17:26.849Z,144.00
2019-04-30T10:18:26.855Z,144.00
2019-04-30T10:19:26.848Z,148.00
2019-04-30T10:20:26.842Z,148.00
2019-04-30T10:21:28.903Z,152.00
2019-04-30T10:22:26.828Z,152.00
2019-04-30T10:23:26.807Z,152.00
2019-04-30T10:24:26.808Z,152.00
2019-04-30T10:25:26.835Z,156.00
2019-04-30T10:26:26.784Z,156.00
2019-04-30T10:27:29.146Z,160.00
2019-04-30T10:28:26.797Z,164.00
2019-04-30T10:29:26.756Z,160.00
2019-04-30T10:30:26.743Z,168.00
2019-04-30T10:31:26.739Z,168.00
2019-04-30T10:32:26.727Z,168.00
2019-04-30T10:33:28.567Z,172.00
2019-04-30T10:34:26.703Z,176.00
2019-04-30T10:35:28.474Z,180.00
2019-04-30T10:36:26.699Z,180.00
2019-04-30T10:37:28.607Z,180.00
2019-04-30T10:38:26.675Z,184.00
2019-04-30T10:39:26.665Z,184.00
2019-04-30T10:40:28.533Z,184.00
2019-04-30T10:41:28.612Z,188.00
2019-04-30T10:42:28.686Z,188.00
2019-04-30T10:43:26.615Z,188.00
2019-04-30T10:44:26.612Z,188.00
2019-04-30T10:45:28.652Z,192.00
2019-04-30T10:46:26.637Z,196.00
2019-04-30T10:47:26.581Z,196.00
2019-04-30T10:48:26.576Z,200.00
2019-04-30T10:49:29.037Z,204.00
2019-04-30T10:50:26.567Z,208.00
2019-04-30T10:51:26.559Z,212.00
2019-04-30T10:52:26.537Z,216.00
2019-04-30T10:53:26.526Z,216.00
2019-04-30T10:54:28.501Z,216.00
2019-04-30T10:55:26.505Z,220.00
2019-04-30T10:56:26.524Z,224.00
2019-04-30T10:57:28.388Z,224.00
2019-04-30T10:58:26.485Z,232.00
2019-04-30T10:59:26.479Z,232.00
2019-04-30T11:00:26.467Z,232.00
2019-04-30T11:01:26.468Z,236.00
2019-04-30T11:02:28.843Z,240.00
2019-04-30T11:03:26.439Z,244.00
2019-04-30T11:04:26.441Z,244.00
2019-04-30T11:05:26.450Z,244.00
2019-04-30T11:06:26.415Z,244.00
2019-04-30T11:07:28.677Z,248.00
2019-04-30T11:08:26.402Z,264.00
2019-04-30T11:09:26.437Z,268.00
2019-04-30T11:10:26.440Z,272.00
2019-04-30T11:11:28.327Z,280.00
2019-04-30T11:12:26.416Z,288.00
2019-04-30T11:13:26.362Z,292.00
2019-04-30T11:14:26.346Z,292.00
2019-04-30T11:15:26.337Z,300.00
2019-04-30T11:16:26.351Z,300.00
2019-04-30T11:17:26.473Z,308.00
2019-04-30T11:18:26.441Z,316.00
2019-04-30T11:19:26.396Z,316.00
2019-04-30T11:20:26.440Z,320.00
2019-04-30T11:21:26.456Z,320.00
2019-04-30T11:22:26.496Z,324.00
2019-04-30T11:23:26.484Z,336.00
2019-04-30T11:24:35.861Z,352.00
2019-04-30T11:25:26.828Z,352.00
2019-04-30T11:26:26.582Z,356.00
2019-04-30T11:27:26.555Z,384.00
2019-04-30T11:28:26.739Z,424.00
2019-04-30T11:29:26.371Z,512.00
2019-04-30T11:30:26.332Z,592.00
2019-04-30T11:31:26.470Z,724.00
2019-04-30T11:32:26.388Z,1584.00
2019-04-30T11:33:26.260Z,2836.00
2019-04-30T11:34:28.205Z,3548.00
2019-04-30T11:35:26.183Z,2312.00
2019-04-30T11:36:26.163Z,1980.00
2019-04-30T11:37:26.143Z,2156.00
2019-04-30T11:38:26.154Z,2040.00
2019-04-30T11:39:26.131Z,1972.00
2019-04-30T11:40:33.921Z,1936.00
2019-04-30T11:41:30.806Z,1912.00
2019-04-30T11:42:26.111Z,1936.00
2019-04-30T11:43:26.115Z,1976.00
2019-04-30T11:44:30.906Z,2000.00
2019-04-30T11:45:26.081Z,2036.00
2019-04-30T11:46:26.110Z,2112.00
2019-04-30T11:47:26.105Z,2008.00
2019-04-30T11:48:26.077Z,1800.00
2019-04-30T11:49:26.085Z,1848.00
2019-04-30T11:50:26.052Z,1960.00
2019-04-30T11:51:27.083Z,2120.00
2019-04-30T11:52:26.041Z,2132.00
2019-04-30T11:53:30.145Z,2128.00
2019-04-30T11:54:26.030Z,2116.00
2019-04-30T11:55:26.020Z,2116.00
2019-04-30T11:56:26.007Z,2040.00
2019-04-30T11:57:26.008Z,2168.00
2019-04-30T11:58:26.049Z,2136.00
2019-04-30T11:59:25.999Z,2148.00
2019-04-30T12:00:25.977Z,1904.00
2019-04-30T12:01:26.126Z,1992.00
2019-04-30T12:02:25.990Z,2200.00
2019-04-30T12:03:26.005Z,2012.00
2019-04-30T12:04:25.962Z,2036.00
2019-04-30T12:05:25.964Z,1380.00
2019-04-30T12:06:25.951Z,2148.00
2019-04-30T12:07:25.963Z,2084.00
2019-04-30T12:08:26.571Z,1944.00
2019-04-30T12:09:25.941Z,2036.00
2019-04-30T12:10:25.919Z,2180.00
2019-04-30T12:11:25.932Z,2148.00
2019-04-30T12:12:26.272Z,2216.00
2019-04-30T12:13:25.913Z,2188.00
2019-04-30T12:14:25.901Z,2164.00
2019-04-30T12:15:25.889Z,2152.00
2019-04-30T12:16:25.877Z,2236.00
2019-04-30T12:17:25.905Z,2248.00
2019-04-30T12:18:25.897Z,1976.00
2019-04-30T12:19:25.887Z,1864.00
2019-04-30T12:20:25.853Z,2044.00
2019-04-30T12:21:25.860Z,1944.00
2019-04-30T12:22:25.843Z,424.00
2019-04-30T12:23:25.854Z,420.00
2019-04-30T12:24:25.842Z,452.00
2019-04-30T12:25:25.833Z,480.00
2019-04-30T12:26:25.834Z,808.00
2019-04-30T12:27:25.820Z,2292.00
2019-04-30T12:28:27.365Z,2348.00
2019-04-30T12:29:25.812Z,2244.00
2019-04-30T12:30:25.807Z,2444.00
2019-04-30T12:31:25.812Z,2344.00
2019-04-30T12:32:25.777Z,2372.00
2019-04-30T12:33:25.791Z,2384.00
2019-04-30T12:34:25.783Z,2216.00
2019-04-30T12:35:25.779Z,2144.00
2019-04-30T12:36:25.768Z,2272.00
2019-04-30T12:37:25.762Z,2308.00
2019-04-30T12:38:25.759Z,2368.00
2019-04-30T12:39:25.763Z,2412.00
2019-04-30T12:40:29.293Z,2392.00
2019-04-30T12:41:25.788Z,2352.00
2019-04-30T12:42:25.813Z,2300.00
2019-04-30T12:43:25.776Z,2228.00
2019-04-30T12:44:25.736Z,2152.00
2019-04-30T12:45:26.023Z,2208.00
2019-04-30T12:46:25.710Z,2172.00
2019-04-30T12:47:25.703Z,2220.00
2019-04-30T12:48:25.717Z,2284.00
2019-04-30T12:49:25.711Z,2320.00
2019-04-30T12:50:25.710Z,2372.00
2019-04-30T12:51:25.689Z,2340.00
2019-04-30T12:52:25.684Z,2304.00
2019-04-30T12:53:25.702Z,2300.00
2019-04-30T12:54:25.693Z,2288.00
2019-04-30T12:55:25.681Z,2204.00
2019-04-30T12:56:26.979Z,2320.00
2019-04-30T12:57:25.678Z,2248.00
2019-04-30T12:58:25.648Z,2308.00
2019-04-30T12:59:25.664Z,2304.00
2019-04-30T13:00:25.696Z,2304.00
2019-04-30T13:01:25.649Z,2288.00